sensor_id;sensor_type;location;lat;lon;timestamp;pressure;altitude;pressure_sealevel;temperature;humidity
75656;BME280;64252;51.094;13.714;2023-02-07T00:00:08;103013.09;;;-7.03;94.51
75656;BME280;64252;51.094;13.714;2023-02-07T00:02:41;103012.66;;;-7.14;95.71
75656;BME280;64252;51.094;13.714;2023-02-07T00:05:07;103024.06;;;-7.17;95.87
75656;BME280;64252;51.094;13.714;2023-02-07T00:07:33;103020.28;;;-7.16;95.38
75656;BME280;64252;51.094;13.714;2023-02-07T00:09:58;103020.66;;;-7.19;95.37
75656;BME280;64252;51.094;13.714;2023-02-07T00:12:24;103019.81;;;-7.26;95.28
75656;BME280;64252;51.094;13.714;2023-02-07T00:14:49;103014.31;;;-7.26;95.08
75656;BME280;64252;51.094;13.714;2023-02-07T00:17:15;103024.03;;;-7.30;95.72
75656;BME280;64252;51.094;13.714;2023-02-07T00:19:40;103032.41;;;-7.38;95.76
75656;BME280;64252;51.094;13.714;2023-02-07T00:22:06;103037.28;;;-7.40;95.46
75656;BME280;64252;51.094;13.714;2023-02-07T00:24:31;103027.31;;;-7.54;95.55
75656;BME280;64252;51.094;13.714;2023-02-07T00:26:58;103033.19;;;-7.57;96.04
75656;BME280;64252;51.094;13.714;2023-02-07T00:29:24;103020.16;;;-7.42;96.30
75656;BME280;64252;51.094;13.714;2023-02-07T00:31:50;103022.72;;;-7.34;96.66
75656;BME280;64252;51.094;13.714;2023-02-07T00:34:16;103030.06;;;-7.47;96.18
75656;BME280;64252;51.094;13.714;2023-02-07T00:36:41;103026.06;;;-7.45;96.14
75656;BME280;64252;51.094;13.714;2023-02-07T00:39:11;103035.78;;;-7.42;94.95
75656;BME280;64252;51.094;13.714;2023-02-07T00:41:37;103039.59;;;-7.37;94.26
75656;BME280;64252;51.094;13.714;2023-02-07T00:44:03;103036.88;;;-7.37;95.07
75656;BME280;64252;51.094;13.714;2023-02-07T00:46:29;103042.16;;;-7.35;94.18
75656;BME280;64252;51.094;13.714;2023-02-07T00:48:54;103031.81;;;-7.40;94.69
75656;BME280;64252;51.094;13.714;2023-02-07T00:51:20;103039.59;;;-7.37;94.76
75656;BME280;64252;51.094;13.714;2023-02-07T00:53:46;103045.72;;;-7.41;95.08
75656;BME280;64252;51.094;13.714;2023-02-07T00:56:12;103036.19;;;-7.45;93.75
75656;BME280;64252;51.094;13.714;2023-02-07T00:58:38;103037.88;;;-7.51;94.97
75656;BME280;64252;51.094;13.714;2023-02-07T01:01:05;103040.78;;;-7.59;94.35
75656;BME280;64252;51.094;13.714;2023-02-07T01:03:31;103041.59;;;-7.65;95.33
75656;BME280;64252;51.094;13.714;2023-02-07T01:05:57;103036.91;;;-7.78;94.78
75656;BME280;64252;51.094;13.714;2023-02-07T01:08:24;103027.22;;;-7.74;95.96
75656;BME280;64252;51.094;13.714;2023-02-07T01:10:50;103023.38;;;-7.79;96.32
75656;BME280;64252;51.094;13.714;2023-02-07T01:13:16;103027.16;;;-7.87;95.68
75656;BME280;64252;51.094;13.714;2023-02-07T01:15:44;103025.00;;;-7.91;96.26
75656;BME280;64252;51.094;13.714;2023-02-07T01:18:11;103023.31;;;-7.92;96.26
75656;BME280;64252;51.094;13.714;2023-02-07T01:20:38;103027.09;;;-7.93;95.96
75656;BME280;64252;51.094;13.714;2023-02-07T01:23:04;103024.59;;;-7.88;96.03
75656;BME280;64252;51.094;13.714;2023-02-07T01:25:32;103029.72;;;-7.79;95.59
75656;BME280;64252;51.094;13.714;2023-02-07T01:27:57;103024.28;;;-7.72;95.27
75656;BME280;64252;51.094;13.714;2023-02-07T01:30:23;103020.81;;;-7.81;95.19
75656;BME280;64252;51.094;13.714;2023-02-07T01:32:50;103024.19;;;-7.85;95.82
75656;BME280;64252;51.094;13.714;2023-02-07T01:35:15;103018.22;;;-7.95;95.07
75656;BME280;64252;51.094;13.714;2023-02-07T01:37:41;103021.56;;;-8.00;96.52
75656;BME280;64252;51.094;13.714;2023-02-07T01:40:07;103027.78;;;-7.85;95.62
75656;BME280;64252;51.094;13.714;2023-02-07T01:42:33;103033.13;;;-7.77;94.71
75656;BME280;64252;51.094;13.714;2023-02-07T01:47:35;103042.81;;;-7.74;93.93
75656;BME280;64252;51.094;13.714;2023-02-07T01:50:01;103046.53;;;-7.88;94.34
75656;BME280;64252;51.094;13.714;2023-02-07T01:52:39;103039.72;;;-7.99;95.26
75656;BME280;64252;51.094;13.714;2023-02-07T01:55:08;103039.44;;;-8.11;94.53
75656;BME280;64252;51.094;13.714;2023-02-07T01:57:35;103042.19;;;-8.11;95.94
75656;BME280;64252;51.094;13.714;2023-02-07T02:00:01;103036.28;;;-8.08;95.77
75656;BME280;64252;51.094;13.714;2023-02-07T02:02:30;103028.22;;;-8.16;95.87
75656;BME280;64252;51.094;13.714;2023-02-07T02:04:57;103017.66;;;-8.19;96.02
75656;BME280;64252;51.094;13.714;2023-02-07T02:07:24;103017.22;;;-8.22;95.79
75656;BME280;64252;51.094;13.714;2023-02-07T02:09:52;103014.28;;;-8.21;95.90
75656;BME280;64252;51.094;13.714;2023-02-07T02:17:36;103000.97;;;-8.24;96.39
75656;BME280;64252;51.094;13.714;2023-02-07T02:23:41;103005.47;;;-8.10;94.00
75656;BME280;64252;51.094;13.714;2023-02-07T02:26:30;103000.00;;;-8.10;94.57
75656;BME280;64252;51.094;13.714;2023-02-07T02:32:04;103000.66;;;-8.42;95.13
75656;BME280;64252;51.094;13.714;2023-02-07T02:37:27;102996.38;;;-8.51;95.02
75656;BME280;64252;51.094;13.714;2023-02-07T02:40:24;103007.41;;;-8.45;95.34
75656;BME280;64252;51.094;13.714;2023-02-07T02:42:54;103004.59;;;-8.51;95.48
75656;BME280;64252;51.094;13.714;2023-02-07T02:45:27;103022.09;;;-8.52;95.32
75656;BME280;64252;51.094;13.714;2023-02-07T02:47:56;103015.94;;;-8.54;95.06
75656;BME280;64252;51.094;13.714;2023-02-07T02:50:27;103013.63;;;-8.57;95.22
75656;BME280;64252;51.094;13.714;2023-02-07T02:52:53;103014.50;;;-8.50;95.99
75656;BME280;64252;51.094;13.714;2023-02-07T02:56:02;103011.47;;;-8.62;94.58
75656;BME280;64252;51.094;13.714;2023-02-07T03:01:47;103011.00;;;-8.65;95.64
75656;BME280;64252;51.094;13.714;2023-02-07T03:04:30;103012.28;;;-8.61;96.14
75656;BME280;64252;51.094;13.714;2023-02-07T03:12:43;103004.94;;;-8.61;96.08
75656;BME280;64252;51.094;13.714;2023-02-07T03:15:17;103003.56;;;-8.50;96.01
75656;BME280;64252;51.094;13.714;2023-02-07T03:18:19;103000.66;;;-8.42;94.72
75656;BME280;64252;51.094;13.714;2023-02-07T03:20:53;102994.38;;;-8.36;94.16
75656;BME280;64252;51.094;13.714;2023-02-07T03:23:22;102997.13;;;-8.36;93.22
75656;BME280;64252;51.094;13.714;2023-02-07T03:25:51;102996.28;;;-8.36;93.09
75656;BME280;64252;51.094;13.714;2023-02-07T03:28:20;103007.41;;;-8.38;92.84
75656;BME280;64252;51.094;13.714;2023-02-07T03:30:47;103015.81;;;-8.46;92.61
75656;BME280;64252;51.094;13.714;2023-02-07T03:33:15;103013.72;;;-8.44;92.25
75656;BME280;64252;51.094;13.714;2023-02-07T03:35:52;103004.84;;;-8.46;91.98
75656;BME280;64252;51.094;13.714;2023-02-07T03:38:21;102999.38;;;-8.46;92.50
75656;BME280;64252;51.094;13.714;2023-02-07T03:40:51;103013.72;;;-8.44;92.59
75656;BME280;64252;51.094;13.714;2023-02-07T03:43:23;103009.03;;;-8.50;92.78
75656;BME280;64252;51.094;13.714;2023-02-07T03:45:51;103005.19;;;-8.56;93.63
75656;BME280;64252;51.094;13.714;2023-02-07T03:48:17;103012.69;;;-8.64;93.49
75656;BME280;64252;51.094;13.714;2023-02-07T03:50:43;103006.97;;;-8.69;94.01
75656;BME280;64252;51.094;13.714;2023-02-07T03:53:09;103003.84;;;-8.66;94.21
75656;BME280;64252;51.094;13.714;2023-02-07T03:55:35;103005.69;;;-8.73;94.44
75656;BME280;64252;51.094;13.714;2023-02-07T03:58:00;102994.88;;;-8.81;93.90
75656;BME280;64252;51.094;13.714;2023-02-07T04:00:26;102994.41;;;-8.85;94.81
75656;BME280;64252;51.094;13.714;2023-02-07T04:02:52;102995.25;;;-8.84;94.29
75656;BME280;64252;51.094;13.714;2023-02-07T04:05:18;103000.47;;;-8.90;93.94
75656;BME280;64252;51.094;13.714;2023-02-07T04:07:44;102996.50;;;-8.87;94.54
75656;BME280;64252;51.094;13.714;2023-02-07T04:10:10;102998.97;;;-8.92;94.75
75656;BME280;64252;51.094;13.714;2023-02-07T04:12:36;102989.91;;;-8.93;95.13
75656;BME280;64252;51.094;13.714;2023-02-07T04:15:03;102993.50;;;-8.92;95.73
75656;BME280;64252;51.094;13.714;2023-02-07T04:17:29;102991.75;;;-9.00;95.11
75656;BME280;64252;51.094;13.714;2023-02-07T04:19:55;102996.38;;;-9.00;94.96
75656;BME280;64252;51.094;13.714;2023-02-07T04:22:20;102990.06;;;-9.01;95.77
75656;BME280;64252;51.094;13.714;2023-02-07T04:24:46;102996.69;;;-8.89;95.50
75656;BME280;64252;51.094;13.714;2023-02-07T04:27:13;102989.91;;;-8.93;94.59
75656;BME280;64252;51.094;13.714;2023-02-07T04:29:39;102985.88;;;-8.97;95.83
75656;BME280;64252;51.094;13.714;2023-02-07T04:32:04;103008.19;;;-9.00;94.55
75656;BME280;64252;51.094;13.714;2023-02-07T04:34:30;102998.91;;;-8.99;94.81
75656;BME280;64252;51.094;13.714;2023-02-07T04:36:56;103002.22;;;-9.03;95.29
75656;BME280;64252;51.094;13.714;2023-02-07T04:39:21;103003.81;;;-9.15;94.60
75656;BME280;64252;51.094;13.714;2023-02-07T04:41:47;103010.25;;;-9.02;95.75
75656;BME280;64252;51.094;13.714;2023-02-07T04:44:12;103006.41;;;-9.07;95.35
75656;BME280;64252;51.094;13.714;2023-02-07T04:46:38;103014.03;;;-9.03;95.27
75656;BME280;64252;51.094;13.714;2023-02-07T04:49:04;103013.25;;;-8.97;94.94
75656;BME280;64252;51.094;13.714;2023-02-07T04:51:30;103009.19;;;-9.22;94.88
75656;BME280;64252;51.094;13.714;2023-02-07T04:53:55;103013.34;;;-9.26;96.00
75656;BME280;64252;51.094;13.714;2023-02-07T04:56:22;103023.00;;;-9.30;95.51
75656;BME280;64252;51.094;13.714;2023-02-07T04:58:47;103021.28;;;-9.31;95.20
75656;BME280;64252;51.094;13.714;2023-02-07T05:01:13;103021.44;;;-9.18;96.54
75656;BME280;64252;51.094;13.714;2023-02-07T05:03:39;103019.38;;;-9.16;95.77
75656;BME280;64252;51.094;13.714;2023-02-07T05:06:05;103026.00;;;-9.25;96.16
75656;BME280;64252;51.094;13.714;2023-02-07T05:08:31;103022.22;;;-9.24;95.25
75656;BME280;64252;51.094;13.714;2023-02-07T05:10:57;103021.44;;;-9.18;96.13
75656;BME280;64252;51.094;13.714;2023-02-07T05:13:23;103026.41;;;-9.07;95.78
75656;BME280;64252;51.094;13.714;2023-02-07T05:15:48;103023.63;;;-9.13;94.50
75656;BME280;64252;51.094;13.714;2023-02-07T05:18:14;103027.44;;;-9.08;95.41
75656;BME280;64252;51.094;13.714;2023-02-07T05:20:40;103032.47;;;-9.11;94.30
75656;BME280;64252;51.094;13.714;2023-02-07T05:23:05;103031.25;;;-9.09;94.44
75656;BME280;64252;51.094;13.714;2023-02-07T05:25:31;103028.25;;;-9.14;95.69
75656;BME280;64252;51.094;13.714;2023-02-07T05:27:57;103028.59;;;-9.17;95.38
75656;BME280;64252;51.094;13.714;2023-02-07T05:30:22;103025.41;;;-9.20;94.62
75656;BME280;64252;51.094;13.714;2023-02-07T05:32:48;103033.53;;;-9.27;95.25
75656;BME280;64252;51.094;13.714;2023-02-07T05:35:59;103024.56;;;-9.42;95.72
75656;BME280;64252;51.094;13.714;2023-02-07T05:38:25;103038.56;;;-9.30;95.15
75656;BME280;64252;51.094;13.714;2023-02-07T05:40:50;103038.66;;;-9.24;94.83
75656;BME280;64252;51.094;13.714;2023-02-07T05:43:16;103040.34;;;-9.23;95.16
75656;BME280;64252;51.094;13.714;2023-02-07T05:45:41;103039.88;;;-9.26;95.95
75656;BME280;64252;51.094;13.714;2023-02-07T05:48:09;103048.16;;;-9.20;96.04
75656;BME280;64252;51.094;13.714;2023-02-07T05:50:35;103053.34;;;-9.25;95.69
75656;BME280;64252;51.094;13.714;2023-02-07T05:53:05;103042.09;;;-9.15;95.52
75656;BME280;64252;51.094;13.714;2023-02-07T05:55:31;103057.53;;;-9.08;96.29
75656;BME280;64252;51.094;13.714;2023-02-07T05:57:57;103041.34;;;-9.09;95.66
75656;BME280;64252;51.094;13.714;2023-02-07T06:00:23;103034.63;;;-9.07;95.56
75656;BME280;64252;51.094;13.714;2023-02-07T06:02:48;103025.50;;;-9.14;95.58
75656;BME280;64252;51.094;13.714;2023-02-07T06:05:16;103030.31;;;-9.16;96.57
75656;BME280;64252;51.094;13.714;2023-02-07T06:07:42;103022.94;;;-9.15;96.42
75656;BME280;64252;51.094;13.714;2023-02-07T06:10:12;103009.81;;;-9.05;97.02
75656;BME280;64252;51.094;13.714;2023-02-07T06:12:38;103013.44;;;-8.98;96.74
75656;BME280;64252;51.094;13.714;2023-02-07T06:15:04;103004.44;;;-8.92;96.81
75656;BME280;64252;51.094;13.714;2023-02-07T06:17:30;103006.06;;;-8.98;96.70
75656;BME280;64252;51.094;13.714;2023-02-07T06:19:56;103001.13;;;-8.88;96.17
75656;BME280;64252;51.094;13.714;2023-02-07T06:22:21;103001.06;;;-8.94;97.06
75656;BME280;64252;51.094;13.714;2023-02-07T06:24:47;103003.88;;;-8.88;96.16
75656;BME280;64252;51.094;13.714;2023-02-07T06:27:13;103004.13;;;-8.82;96.72
75656;BME280;64252;51.094;13.714;2023-02-07T06:29:38;103010.91;;;-8.78;95.88
75656;BME280;64252;51.094;13.714;2023-02-07T06:32:04;103011.66;;;-8.84;96.54
75656;BME280;64252;51.094;13.714;2023-02-07T06:34:30;103012.75;;;-8.85;96.50
75656;BME280;64252;51.094;13.714;2023-02-07T06:36:55;103018.84;;;-8.83;96.33
75656;BME280;64252;51.094;13.714;2023-02-07T06:39:21;103021.84;;;-8.78;95.96
75656;BME280;64252;51.094;13.714;2023-02-07T06:41:46;103018.06;;;-8.77;95.54
75656;BME280;64252;51.094;13.714;2023-02-07T06:44:12;103026.03;;;-8.82;96.49
75656;BME280;64252;51.094;13.714;2023-02-07T06:46:37;103024.31;;;-8.83;96.28
75656;BME280;64252;51.094;13.714;2023-02-07T06:49:05;103033.56;;;-8.84;95.78
75656;BME280;64252;51.094;13.714;2023-02-07T06:51:30;103031.50;;;-8.82;95.36
75656;BME280;64252;51.094;13.714;2023-02-07T06:53:56;103031.50;;;-8.82;96.21
75656;BME280;64252;51.094;13.714;2023-02-07T06:56:21;103046.63;;;-8.86;96.00
75656;BME280;64252;51.094;13.714;2023-02-07T06:58:47;103044.59;;;-8.78;95.24
75656;BME280;64252;51.094;13.714;2023-02-07T07:01:13;103034.09;;;-8.74;95.79
75656;BME280;64252;51.094;13.714;2023-02-07T07:03:47;103045.81;;;-8.59;96.68
75656;BME280;64252;51.094;13.714;2023-02-07T07:06:13;103046.75;;;-8.52;96.32
75656;BME280;64252;51.094;13.714;2023-02-07T07:08:39;103050.31;;;-8.52;96.66
75656;BME280;64252;51.094;13.714;2023-02-07T07:11:08;103046.38;;;-8.43;95.92
75656;BME280;64252;51.094;13.714;2023-02-07T07:13:34;103042.81;;;-8.43;95.86
75656;BME280;64252;51.094;13.714;2023-02-07T07:16:00;103038.09;;;-8.21;94.69
75656;BME280;64252;51.094;13.714;2023-02-07T07:18:26;103033.72;;;-8.16;95.14
75656;BME280;64252;51.094;13.714;2023-02-07T07:20:53;103036.34;;;-7.94;94.07
75656;BME280;64252;51.094;13.714;2023-02-07T07:23:20;103040.25;;;-7.82;93.39
75656;BME280;64252;51.094;13.714;2023-02-07T07:25:45;103052.44;;;-7.91;93.22
75656;BME280;64252;51.094;13.714;2023-02-07T07:28:14;103046.53;;;-7.88;93.51
75656;BME280;64252;51.094;13.714;2023-02-07T07:30:39;103048.31;;;-7.74;91.91
75656;BME280;64252;51.094;13.714;2023-02-07T07:33:05;103050.00;;;-7.73;92.15
75656;BME280;64252;51.094;13.714;2023-02-07T07:35:31;103066.44;;;-7.73;92.34
75656;BME280;64252;51.094;13.714;2023-02-07T07:37:58;103056.34;;;-7.66;91.63
75656;BME280;64252;51.094;13.714;2023-02-07T07:40:23;103057.72;;;-7.49;91.69
75656;BME280;64252;51.094;13.714;2023-02-07T07:42:48;103066.56;;;-7.47;91.84
75656;BME280;64252;51.094;13.714;2023-02-07T07:45:37;103065.34;;;-7.38;91.83
75656;BME280;64252;51.094;13.714;2023-02-07T07:48:03;103055.66;;;-7.34;91.83
75656;BME280;64252;51.094;13.714;2023-02-07T07:50:28;103062.03;;;-7.27;92.46
75656;BME280;64252;51.094;13.714;2023-02-07T07:52:54;103055.72;;;-7.21;91.73
75656;BME280;64252;51.094;13.714;2023-02-07T07:55:20;103052.38;;;-7.10;91.37
75656;BME280;64252;51.094;13.714;2023-02-07T07:57:45;103072.22;;;-7.01;90.72
75656;BME280;64252;51.094;13.714;2023-02-07T08:00:14;103068.47;;;-6.93;90.28
75656;BME280;64252;51.094;13.714;2023-02-07T08:02:40;103072.69;;;-6.91;89.77
75656;BME280;64252;51.094;13.714;2023-02-07T08:05:06;103068.94;;;-6.83;90.26
75656;BME280;64252;51.094;13.714;2023-02-07T08:07:32;103062.16;;;-6.81;88.82
75656;BME280;64252;51.094;13.714;2023-02-07T08:09:57;103067.69;;;-6.74;89.40
75656;BME280;64252;51.094;13.714;2023-02-07T08:12:23;103064.72;;;-6.66;88.07
75656;BME280;64252;51.094;13.714;2023-02-07T08:14:52;103065.56;;;-6.59;88.39
75656;BME280;64252;51.094;13.714;2023-02-07T08:21:04;103050.34;;;-6.48;89.20
75656;BME280;64252;51.094;13.714;2023-02-07T08:23:30;103063.91;;;-6.34;88.62
75656;BME280;64252;51.094;13.714;2023-02-07T08:25:56;103065.16;;;-6.30;87.47
75656;BME280;64252;51.094;13.714;2023-02-07T08:28:22;103066.88;;;-6.22;88.02
75656;BME280;64252;51.094;13.714;2023-02-07T08:30:48;103067.25;;;-6.12;87.90
75656;BME280;64252;51.094;13.714;2023-02-07T08:33:14;103072.31;;;-6.02;87.38
75656;BME280;64252;51.094;13.714;2023-02-07T08:35:40;103067.69;;;-5.95;87.17
75656;BME280;64252;51.094;13.714;2023-02-07T08:38:06;103064.09;;;-5.89;87.35
75656;BME280;64252;51.094;13.714;2023-02-07T08:40:32;103071.88;;;-5.80;86.78
75656;BME280;64252;51.094;13.714;2023-02-07T08:42:58;103071.19;;;-5.68;86.42
75656;BME280;64252;51.094;13.714;2023-02-07T08:45:29;103081.97;;;-5.60;86.62
75656;BME280;64252;51.094;13.714;2023-02-07T08:47:55;103074.75;;;-5.55;85.67
75656;BME280;64252;51.094;13.714;2023-02-07T08:50:20;103086.78;;;-5.43;86.63
75656;BME280;64252;51.094;13.714;2023-02-07T08:52:46;103086.09;;;-5.32;86.23
75656;BME280;64252;51.094;13.714;2023-02-07T08:55:11;103094.34;;;-5.32;85.95
75656;BME280;64252;51.094;13.714;2023-02-07T08:57:37;103081.88;;;-5.27;86.02
75656;BME280;64252;51.094;13.714;2023-02-07T09:00:05;103080.13;;;-5.15;85.65
75656;BME280;64252;51.094;13.714;2023-02-07T09:02:33;103088.13;;;-5.07;84.96
75656;BME280;64252;51.094;13.714;2023-02-07T09:04:58;103075.38;;;-4.95;82.89
75656;BME280;64252;51.094;13.714;2023-02-07T09:07:24;103082.91;;;-4.84;83.40
75656;BME280;64252;51.094;13.714;2023-02-07T09:09:49;103092.22;;;-4.78;83.44
75656;BME280;64252;51.094;13.714;2023-02-07T09:12:15;103085.25;;;-4.81;83.30
75656;BME280;64252;51.094;13.714;2023-02-07T09:14:41;103087.94;;;-4.74;84.40
75656;BME280;64252;51.094;13.714;2023-02-07T09:17:07;103085.84;;;-4.79;83.63
75656;BME280;64252;51.094;13.714;2023-02-07T09:19:33;103081.53;;;-4.62;82.41
75656;BME280;64252;51.094;13.714;2023-02-07T09:21:59;103076.50;;;-4.47;82.05
75656;BME280;64252;51.094;13.714;2023-02-07T09:24:25;103068.66;;;-4.43;82.13
75656;BME280;64252;51.094;13.714;2023-02-07T09:26:50;103070.28;;;-4.35;81.15
75656;BME280;64252;51.094;13.714;2023-02-07T09:29:16;103057.41;;;-4.17;80.37
75656;BME280;64252;51.094;13.714;2023-02-07T09:31:42;103064.16;;;-4.13;81.11
75656;BME280;64252;51.094;13.714;2023-02-07T09:34:08;103066.91;;;-3.88;80.79
75656;BME280;64252;51.094;13.714;2023-02-07T09:36:34;103058.94;;;-3.78;78.71
75656;BME280;64252;51.094;13.714;2023-02-07T09:39:01;103065.00;;;-3.69;78.88
75656;BME280;64252;51.094;13.714;2023-02-07T09:41:33;103055.28;;;-3.53;78.58
75656;BME280;64252;51.094;13.714;2023-02-07T09:44:20;103039.00;;;-3.43;77.94
75656;BME280;64252;51.094;13.714;2023-02-07T09:46:56;103047.03;;;-3.24;79.45
75656;BME280;64252;51.094;13.714;2023-02-07T09:49:35;103042.22;;;-3.28;77.88
75656;BME280;64252;51.094;13.714;2023-02-07T09:52:05;103036.22;;;-3.07;76.56
75656;BME280;64252;51.094;13.714;2023-02-07T09:54:41;103036.22;;;-3.07;76.72
75656;BME280;64252;51.094;13.714;2023-02-07T09:57:29;103033.59;;;-3.02;76.97
75656;BME280;64252;51.094;13.714;2023-02-07T10:00:13;103037.47;;;-2.91;76.28
75656;BME280;64252;51.094;13.714;2023-02-07T10:08:59;103040.97;;;-2.54;74.71
75656;BME280;64252;51.094;13.714;2023-02-07T10:14:39;103031.75;;;-2.25;74.46
75656;BME280;64252;51.094;13.714;2023-02-07T10:20:25;103024.91;;;-2.11;73.80
75656;BME280;64252;51.094;13.714;2023-02-07T10:25:43;103033.81;;;-1.86;75.77
75656;BME280;64252;51.094;13.714;2023-02-07T10:30:53;103036.22;;;-1.78;72.66
75656;BME280;64252;51.094;13.714;2023-02-07T10:33:29;103029.94;;;-1.73;74.25
75656;BME280;64252;51.094;13.714;2023-02-07T10:35:56;103026.81;;;-1.77;74.55
75656;BME280;64252;51.094;13.714;2023-02-07T10:38:27;103024.66;;;-1.74;72.64
75656;BME280;64252;51.094;13.714;2023-02-07T10:41:25;103027.88;;;-1.54;71.84
75656;BME280;64252;51.094;13.714;2023-02-07T10:43:54;103031.47;;;-1.42;71.01
75656;BME280;64252;51.094;13.714;2023-02-07T10:46:21;103034.94;;;-1.35;70.75
75656;BME280;64252;51.094;13.714;2023-02-07T10:48:47;103021.19;;;-1.30;70.32
75656;BME280;64252;51.094;13.714;2023-02-07T10:53:59;103030.69;;;-1.14;70.67
75656;BME280;64252;51.094;13.714;2023-02-07T10:56:28;103033.78;;;-1.11;69.74
75656;BME280;64252;51.094;13.714;2023-02-07T10:58:56;103025.34;;;-1.04;70.19
75656;BME280;64252;51.094;13.714;2023-02-07T11:01:27;103030.81;;;-0.93;69.24
75656;BME280;64252;51.094;13.714;2023-02-07T11:03:53;103021.81;;;-1.00;69.46
75656;BME280;64252;51.094;13.714;2023-02-07T11:06:33;103031.13;;;-0.77;70.25
75656;BME280;64252;51.094;13.714;2023-02-07T11:09:15;103020.91;;;-0.89;71.05
75656;BME280;64252;51.094;13.714;2023-02-07T11:11:49;103015.88;;;-1.20;72.78
75656;BME280;64252;51.094;13.714;2023-02-07T11:14:18;103015.88;;;-0.92;71.57
75656;BME280;64252;51.094;13.714;2023-02-07T11:16:46;103009.44;;;-0.80;71.21
75656;BME280;64252;51.094;13.714;2023-02-07T11:19:17;103008.09;;;-0.61;70.98
75656;BME280;64252;51.094;13.714;2023-02-07T11:21:46;103005.50;;;-0.51;69.31
75656;BME280;64252;51.094;13.714;2023-02-07T11:26:49;102999.22;;;-0.30;68.55
75656;BME280;64252;51.094;13.714;2023-02-07T11:29:20;102990.31;;;-0.32;67.95
75656;BME280;64252;51.094;13.714;2023-02-07T11:31:48;102986.69;;;-0.16;68.54
75656;BME280;64252;51.094;13.714;2023-02-07T11:36:53;102986.25;;;-0.08;68.28
75656;BME280;64252;51.094;13.714;2023-02-07T11:39:21;102989.53;;;-0.11;67.80
75656;BME280;64252;51.094;13.714;2023-02-07T11:41:57;102988.53;;;-0.21;68.02
75656;BME280;64252;51.094;13.714;2023-02-07T11:44:24;102987.63;;;-0.43;68.96
75656;BME280;64252;51.094;13.714;2023-02-07T11:46:53;102991.84;;;-0.24;69.68
75656;BME280;64252;51.094;13.714;2023-02-07T11:49:55;102987.78;;;-0.17;69.16
75656;BME280;64252;51.094;13.714;2023-02-07T11:52:20;102988.47;;;-0.10;68.71
75656;BME280;64252;51.094;13.714;2023-02-07T11:54:51;102985.41;;;0.09;68.88
75656;BME280;64252;51.094;13.714;2023-02-07T11:57:22;102980.34;;;0.06;68.81
75656;BME280;64252;51.094;13.714;2023-02-07T12:00:18;102985.41;;;0.09;69.47
75656;BME280;64252;51.094;13.714;2023-02-07T12:05:50;102980.63;;;0.26;68.25
75656;BME280;64252;51.094;13.714;2023-02-07T12:08:20;102986.34;;;0.36;68.84
75656;BME280;64252;51.094;13.714;2023-02-07T12:11:01;102987.66;;;0.33;68.91
75656;BME280;64252;51.094;13.714;2023-02-07T12:13:34;102970.19;;;0.33;67.95
75656;BME280;64252;51.094;13.714;2023-02-07T12:16:11;102975.78;;;0.38;69.20
75656;BME280;64252;51.094;13.714;2023-02-07T12:18:43;102956.69;;;0.41;69.09
75656;BME280;64252;51.094;13.714;2023-02-07T12:21:27;102967.19;;;0.39;69.71
75656;BME280;64252;51.094;13.714;2023-02-07T12:24:12;102953.69;;;0.26;68.89
75656;BME280;64252;51.094;13.714;2023-02-07T12:38:20;102938.03;;;0.20;69.29
75656;BME280;64252;51.094;13.714;2023-02-07T12:40:59;102936.19;;;0.26;69.59
75656;BME280;64252;51.094;13.714;2023-02-07T12:43:31;102932.94;;;0.34;69.04
75656;BME280;64252;51.094;13.714;2023-02-07T12:51:07;102952.31;;;0.29;69.09
75656;BME280;64252;51.094;13.714;2023-02-07T12:56:34;102940.84;;;0.42;69.54
75656;BME280;64252;51.094;13.714;2023-02-07T12:59:29;102943.63;;;0.42;69.69
75656;BME280;64252;51.094;13.714;2023-02-07T13:10:13;102928.09;;;0.46;69.98
75656;BME280;64252;51.094;13.714;2023-02-07T13:12:59;102926.94;;;0.42;69.21
75656;BME280;64252;51.094;13.714;2023-02-07T13:20:52;102909.38;;;0.36;69.90
75656;BME280;64252;51.094;13.714;2023-02-07T13:23:21;102917.94;;;0.35;69.99
75656;BME280;64252;51.094;13.714;2023-02-07T13:25:53;102914.63;;;0.33;70.40
75656;BME280;64252;51.094;13.714;2023-02-07T13:28:26;102910.31;;;0.25;70.54
75656;BME280;64252;51.094;13.714;2023-02-07T13:30:56;102907.38;;;0.32;71.24
75656;BME280;64252;51.094;13.714;2023-02-07T13:33:39;102894.56;;;0.31;70.84
75656;BME280;64252;51.094;13.714;2023-02-07T13:36:16;102902.38;;;0.34;70.59
75656;BME280;64252;51.094;13.714;2023-02-07T13:38:58;102904.84;;;0.30;70.68
75656;BME280;64252;51.094;13.714;2023-02-07T13:52:16;102893.72;;;0.30;72.05
75656;BME280;64252;51.094;13.714;2023-02-07T13:55:14;102883.97;;;0.28;72.50
75656;BME280;64252;51.094;13.714;2023-02-07T13:57:44;102894.09;;;0.39;72.33
75656;BME280;64252;51.094;13.714;2023-02-07T14:00:31;102894.59;;;0.58;71.38
75656;BME280;64252;51.094;13.714;2023-02-07T14:03:03;102882.31;;;0.80;70.37
75656;BME280;64252;51.094;13.714;2023-02-07T14:05:36;102880.84;;;1.00;70.03
75656;BME280;64252;51.094;13.714;2023-02-07T14:08:18;102879.84;;;1.11;69.67
75656;BME280;64252;51.094;13.714;2023-02-07T14:18:49;102876.47;;;0.77;70.15
75656;BME280;64252;51.094;13.714;2023-02-07T14:34:20;102861.59;;;0.39;72.08
75656;BME280;64252;51.094;13.714;2023-02-07T14:36:47;102854.63;;;0.37;71.92
75656;BME280;64252;51.094;13.714;2023-02-07T14:41:49;102859.03;;;0.33;72.78
75656;BME280;64252;51.094;13.714;2023-02-07T14:46:52;102850.38;;;0.08;72.97
75656;BME280;64252;51.094;13.714;2023-02-07T14:49:40;102846.88;;;-0.05;73.08
75656;BME280;64252;51.094;13.714;2023-02-07T14:52:21;102862.59;;;-0.15;73.21
75656;BME280;64252;51.094;13.714;2023-02-07T15:05:22;102860.00;;;-0.77;74.98
75656;BME280;64252;51.094;13.714;2023-02-07T15:10:40;102868.16;;;-1.04;75.51
75656;BME280;64252;51.094;13.714;2023-02-07T15:15:59;102867.28;;;-1.21;75.84